Аэропорт
Душанбе (UTDD)

 UTDD / DYU
ЗЦ Центральная Азия
Душанбе (UTDD)
Душанбе (UTDD)
 38.54330, 68.82500  / 2575 ft

 UTDD 250800Z 08005MPS 040V120 9999 FEW077CB BKN100 18/04 Q1019 R09/CLRD// TEMPO TS RMK QFE696/0928
 TAF UTDD 250300Z 2504/2516 VRB02MPS 6000 SCT060CB BKN100 PROB40 TEMPO 2504/2516 3100 -TSRA BR
UTDD charts
показать схемы
Название сценария Тип сценария Flight Simulator 9 Flight Simulator X Prepar3D v2 Prepar3D v3 Prepar3D v4 xPlane
Recommended scenery for FS9 бесплатный
Recommended scenery for FSX бесплатный
Recommended scenery for xPlane бесплатный


2020 © VATRUS division (Privacy Policy)